Time,TemperatureF,DewpointF,PressureIn,WindDirection,WindDirectionDegrees,WindSpeedMPH,WindSpeedGustMPH,Humidity,HourlyPrecipIn,Conditions,Clouds,dailyrainin,SoftwareType,DateUTC
2015-05-06 00:02:00,70.2,66.8,29.89,SSE,156,12.0,14.0,89,0.01,,,0.00,VWS V14.01,2015-05-06 05:02:00,
2015-05-06 00:07:00,70.2,66.8,29.89,SSE,159,9.0,15.0,89,0.01,,,0.00,VWS V14.01,2015-05-06 05:07:00,
2015-05-06 00:12:00,70.1,66.7,29.89,SSE,156,10.0,15.0,89,0.01,,,0.00,VWS V14.01,2015-05-06 05:12:00,
2015-05-06 00:17:00,70.1,66.7,29.89,SSE,154,13.0,15.0,89,0.01,,,0.00,VWS V14.01,2015-05-06 05:17:00,
2015-05-06 00:22:00,70.1,66.7,29.89,SSE,150,13.0,16.0,89,0.01,,,0.00,VWS V14.01,2015-05-06 05:22:00,
2015-05-06 00:27:00,70.1,66.7,29.89,SE,144,19.0,20.0,89,0.01,,,0.00,VWS V14.01,2015-05-06 05:27:00,
2015-05-06 00:32:00,70.2,66.5,29.89,SSE,161,17.0,17.0,88,0.01,,,0.00,VWS V14.01,2015-05-06 05:32:00,
2015-05-06 00:37:00,70.2,66.5,29.89,SSE,149,12.0,19.0,88,0.01,,,0.00,VWS V14.01,2015-05-06 05:37:00,
2015-05-06 00:42:00,70.2,66.5,29.89,SSE,154,12.0,15.0,88,0.01,,,0.00,VWS V14.01,2015-05-06 05:42:00,
2015-05-06 00:47:00,70.2,66.5,29.89,SE,140,18.0,18.0,88,0.00,,,0.00,VWS V14.01,2015-05-06 05:47:00,
2015-05-06 00:52:00,70.1,66.4,29.89,SE,143,13.0,14.0,88,0.00,,,0.00,VWS V14.01,2015-05-06 05:52:00,
2015-05-06 00:57:00,70.0,66.3,29.88,SSE,153,15.0,17.0,88,0.00,,,0.00,VWS V14.01,2015-05-06 05:57:00,
2015-05-06 01:02:00,69.9,66.2,29.88,SE,142,15.0,18.0,88,0.01,,,0.01,VWS V14.01,2015-05-06 06:02:00,
2015-05-06 01:07:00,69.7,66.0,29.88,SSE,153,10.0,16.0,88,0.01,,,0.01,VWS V14.01,2015-05-06 06:07:00,
2015-05-06 01:12:00,69.6,65.9,29.88,SSE,155,11.0,15.0,88,0.01,,,0.01,VWS V14.01,2015-05-06 06:12:00,
2015-05-06 01:17:00,69.5,66.1,29.89,SSE,154,12.0,17.0,89,0.01,,,0.01,VWS V14.01,2015-05-06 06:17:00,
2015-05-06 01:22:00,69.4,66.0,29.89,SE,125,19.0,19.0,89,0.01,,,0.01,VWS V14.01,2015-05-06 06:22:00,
2015-05-06 01:27:00,69.3,65.9,29.88,SSE,147,15.0,17.0,89,0.01,,,0.01,VWS V14.01,2015-05-06 06:27:00,
2015-05-06 01:32:00,69.1,65.7,29.88,SE,146,17.0,19.0,89,0.25,,,0.25,VWS V14.01,2015-05-06 06:32:00,
2015-05-06 01:37:00,68.7,65.7,29.88,SSE,163,17.0,18.0,90,0.40,,,0.40,VWS V14.01,2015-05-06 06:37:00,
2015-05-06 01:42:00,68.4,65.4,29.88,SSE,150,19.0,21.0,90,0.46,,,0.46,VWS V14.01,2015-05-06 06:42:00,
2015-05-06 01:47:00,68.3,65.6,29.87,SSE,159,12.0,14.0,91,0.48,,,0.48,VWS V14.01,2015-05-06 06:47:00,
2015-05-06 01:52:00,68.2,65.5,29.88,SE,140,16.0,17.0,91,0.50,,,0.50,VWS V14.01,2015-05-06 06:52:00,
2015-05-06 01:56:00,68.1,65.4,29.88,SSE,157,15.0,20.0,91,0.50,,,0.50,VWS V14.01,2015-05-06 06:56:00,
2015-05-06 02:01:00,68.0,65.3,29.88,SSE,165,15.0,21.0,91,0.50,,,0.51,VWS V14.01,2015-05-06 07:01:00,
2015-05-06 02:06:00,68.0,65.6,29.89,SSE,157,16.0,17.0,92,0.50,,,0.51,VWS V14.01,2015-05-06 07:06:00,
2015-05-06 02:11:00,68.0,65.6,29.89,South,171,14.0,17.0,92,0.53,,,0.54,VWS V14.01,2015-05-06 07:11:00,
2015-05-06 02:16:00,68.0,65.6,29.89,SSE,161,14.0,17.0,92,0.54,,,0.55,VWS V14.01,2015-05-06 07:16:00,
2015-05-06 02:21:00,68.0,65.6,29.88,South,169,11.0,16.0,92,0.55,,,0.56,VWS V14.01,2015-05-06 07:21:00,
2015-05-06 02:26:00,68.0,65.6,29.88,SE,144,14.0,15.0,92,0.55,,,0.56,VWS V14.01,2015-05-06 07:26:00,
2015-05-06 02:31:00,68.0,65.6,29.88,SSE,163,12.0,15.0,92,0.33,,,0.56,VWS V14.01,2015-05-06 07:31:00,
2015-05-06 02:36:00,68.0,65.6,29.88,SSE,158,11.0,16.0,92,0.18,,,0.56,VWS V14.01,2015-05-06 07:36:00,
2015-05-06 02:41:00,67.9,65.5,29.88,SSE,157,15.0,15.0,92,0.11,,,0.57,VWS V14.01,2015-05-06 07:41:00,
2015-05-06 02:46:00,67.9,65.5,29.88,SE,143,10.0,13.0,92,0.09,,,0.57,VWS V14.01,2015-05-06 07:46:00,
2015-05-06 02:51:00,67.9,65.5,29.88,SSE,153,12.0,15.0,92,0.07,,,0.57,VWS V14.01,2015-05-06 07:51:00,
2015-05-06 02:56:00,67.8,65.4,29.88,SSE,157,9.0,11.0,92,0.07,,,0.57,VWS V14.01,2015-05-06 07:56:00,
2015-05-06 03:01:00,67.8,65.4,29.87,SSE,155,9.0,9.0,92,0.06,,,0.57,VWS V14.01,2015-05-06 08:01:00,
2015-05-06 03:06:00,67.9,65.5,29.88,SSE,157,9.0,10.0,92,0.06,,,0.57,VWS V14.01,2015-05-06 08:06:00,
2015-05-06 03:11:00,67.9,65.5,29.88,SSE,165,9.0,10.0,92,0.03,,,0.57,VWS V14.01,2015-05-06 08:11:00,
2015-05-06 03:16:00,68.0,65.6,29.88,SSE,166,10.0,11.0,92,0.02,,,0.57,VWS V14.01,2015-05-06 08:16:00,
2015-05-06 03:22:00,68.0,65.6,29.88,SSE,154,8.0,10.0,92,0.01,,,0.57,VWS V14.01,2015-05-06 08:22:00,
2015-05-06 03:26:00,68.1,65.7,29.87,SE,145,9.0,13.0,92,0.01,,,0.57,VWS V14.01,2015-05-06 08:26:00,
2015-05-06 03:32:00,68.1,65.7,29.86,South,176,12.0,15.0,92,0.01,,,0.57,VWS V14.01,2015-05-06 08:32:00,
2015-05-06 03:36:00,68.1,65.7,29.86,SSE,150,13.0,13.0,92,0.01,,,0.57,VWS V14.01,2015-05-06 08:36:00,
2015-05-06 03:42:00,68.2,65.8,29.87,SSE,148,8.0,8.0,92,0.00,,,0.57,VWS V14.01,2015-05-06 08:42:00,
2015-05-06 03:47:00,68.2,65.8,29.87,South,172,10.0,19.0,92,0.00,,,0.57,VWS V14.01,2015-05-06 08:47:00,
2015-05-06 03:52:00,68.2,65.8,29.87,South,175,10.0,14.0,92,0.00,,,0.57,VWS V14.01,2015-05-06 08:52:00,
2015-05-06 03:57:00,68.2,65.8,29.87,SE,145,9.0,16.0,92,0.00,,,0.57,VWS V14.01,2015-05-06 08:57:00,
2015-05-06 04:02:00,68.2,65.8,29.87,SSE,150,13.0,16.0,92,0.00,,,0.57,VWS V14.01,2015-05-06 09:02:00,
2015-05-06 04:07:00,68.1,65.7,29.87,SSE,149,18.0,21.0,92,0.00,,,0.57,VWS V14.01,2015-05-06 09:07:00,
2015-05-06 04:12:00,68.1,65.7,29.87,SSE,148,11.0,18.0,92,0.00,,,0.57,VWS V14.01,2015-05-06 09:12:00,
2015-05-06 04:17:00,68.1,65.7,29.88,SSE,163,11.0,13.0,92,0.00,,,0.57,VWS V14.01,2015-05-06 09:17:00,
2015-05-06 04:22:00,68.1,65.7,29.88,SSE,153,12.0,16.0,92,0.00,,,0.57,VWS V14.01,2015-05-06 09:22:00,
2015-05-06 04:27:00,68.1,65.7,29.87,SSE,157,9.0,14.0,92,0.00,,,0.57,VWS V14.01,2015-05-06 09:27:00,
2015-05-06 04:32:00,68.1,65.7,29.87,SSE,150,15.0,16.0,92,0.00,,,0.57,VWS V14.01,2015-05-06 09:32:00,
2015-05-06 04:37:00,68.1,65.7,29.87,SSE,158,11.0,20.0,92,0.00,,,0.57,VWS V14.01,2015-05-06 09:37:00,
2015-05-06 04:42:00,68.1,65.7,29.88,SSE,153,13.0,15.0,92,0.00,,,0.57,VWS V14.01,2015-05-06 09:42:00,
2015-05-06 04:47:00,68.1,65.7,29.87,SE,141,14.0,14.0,92,0.00,,,0.57,VWS V14.01,2015-05-06 09:47:00,
2015-05-06 04:52:00,68.1,65.7,29.87,SE,134,12.0,15.0,92,0.00,,,0.57,VWS V14.01,2015-05-06 09:52:00,
2015-05-06 04:57:00,68.0,65.6,29.87,SSE,150,14.0,17.0,92,0.00,,,0.57,VWS V14.01,2015-05-06 09:57:00,
2015-05-06 05:02:00,68.0,65.6,29.87,SSE,148,16.0,18.0,92,0.00,,,0.57,VWS V14.01,2015-05-06 10:02:00,
2015-05-06 05:07:00,68.1,65.7,29.87,SSE,157,15.0,19.0,92,0.00,,,0.57,VWS V14.01,2015-05-06 10:07:00,
2015-05-06 05:12:00,68.0,65.6,29.87,SSE,167,16.0,20.0,92,0.00,,,0.57,VWS V14.01,2015-05-06 10:12:00,
2015-05-06 05:17:00,68.1,65.7,29.87,SSE,147,14.0,17.0,92,0.00,,,0.57,VWS V14.01,2015-05-06 10:17:00,
2015-05-06 05:22:00,68.0,65.6,29.87,SSE,161,15.0,18.0,92,0.00,,,0.57,VWS V14.01,2015-05-06 10:22:00,
2015-05-06 05:27:00,68.0,65.6,29.88,SSE,159,10.0,16.0,92,0.00,,,0.57,VWS V14.01,2015-05-06 10:27:00,
2015-05-06 05:32:00,68.0,65.6,29.88,SSE,163,11.0,14.0,92,0.00,,,0.57,VWS V14.01,2015-05-06 10:32:00,
2015-05-06 05:37:00,68.0,65.3,29.88,South,171,15.0,18.0,91,0.00,,,0.57,VWS V14.01,2015-05-06 10:37:00,
2015-05-06 05:42:00,68.0,65.3,29.88,SSE,153,10.0,14.0,91,0.00,,,0.57,VWS V14.01,2015-05-06 10:42:00,
2015-05-06 05:47:00,68.0,65.3,29.88,SSE,158,15.0,15.0,91,0.00,,,0.57,VWS V14.01,2015-05-06 10:47:00,
2015-05-06 05:52:00,68.0,65.3,29.88,SSE,150,16.0,21.0,91,0.00,,,0.57,VWS V14.01,2015-05-06 10:52:00,
2015-05-06 05:57:00,68.0,65.3,29.88,SSE,154,14.0,17.0,91,0.00,,,0.57,VWS V14.01,2015-05-06 10:57:00,
2015-05-06 06:02:00,68.0,65.3,29.88,SSE,159,15.0,15.0,91,0.00,,,0.57,VWS V14.01,2015-05-06 11:02:00,
2015-05-06 06:07:00,68.0,65.3,29.88,SSE,151,12.0,18.0,91,0.00,,,0.57,VWS V14.01,2015-05-06 11:07:00,
2015-05-06 06:12:00,68.0,65.3,29.88,SSE,160,8.0,12.0,91,0.00,,,0.57,VWS V14.01,2015-05-06 11:12:00,
2015-05-06 06:17:00,68.0,65.3,29.88,SSE,153,12.0,16.0,91,0.00,,,0.57,VWS V14.01,2015-05-06 11:17:00,
2015-05-06 06:22:00,68.0,65.3,29.88,SE,144,13.0,14.0,91,0.00,,,0.57,VWS V14.01,2015-05-06 11:22:00,
2015-05-06 06:27:00,68.0,65.3,29.88,SE,144,13.0,16.0,91,0.00,,,0.57,VWS V14.01,2015-05-06 11:27:00,
2015-05-06 06:32:00,68.0,65.3,29.88,SSE,153,10.0,14.0,91,0.00,,,0.57,VWS V14.01,2015-05-06 11:32:00,
2015-05-06 06:37:00,68.0,65.3,29.88,SSE,149,10.0,10.0,91,0.00,,,0.57,VWS V14.01,2015-05-06 11:37:00,
2015-05-06 06:42:00,68.0,65.3,29.88,SSE,164,11.0,15.0,91,0.00,,,0.57,VWS V14.01,2015-05-06 11:42:00,
2015-05-06 06:47:00,68.0,65.3,29.89,SSE,157,8.0,12.0,91,0.00,,,0.57,VWS V14.01,2015-05-06 11:47:00,
2015-05-06 06:52:00,68.0,65.3,29.89,SSE,157,16.0,19.0,91,0.00,,,0.57,VWS V14.01,2015-05-06 11:52:00,
2015-05-06 06:57:00,68.0,65.3,29.89,SSE,152,14.0,14.0,91,0.00,,,0.57,VWS V14.01,2015-05-06 11:57:00,
2015-05-06 07:02:00,68.0,65.3,29.89,SE,146,12.0,17.0,91,0.00,,,0.57,VWS V14.01,2015-05-06 12:02:00,
2015-05-06 07:07:00,68.1,65.1,29.89,SE,137,17.0,17.0,90,0.00,,,0.57,VWS V14.01,2015-05-06 12:07:00,
2015-05-06 07:12:00,68.1,65.1,29.89,SE,146,15.0,18.0,90,0.00,,,0.57,VWS V14.01,2015-05-06 12:12:00,
2015-05-06 07:17:00,68.1,65.1,29.89,SE,143,14.0,17.0,90,0.00,,,0.57,VWS V14.01,2015-05-06 12:17:00,
2015-05-06 07:22:00,68.2,65.2,29.89,SE,142,13.0,15.0,90,0.00,,,0.57,VWS V14.01,2015-05-06 12:22:00,
2015-05-06 07:27:00,68.2,65.2,29.89,SE,140,13.0,14.0,90,0.00,,,0.57,VWS V14.01,2015-05-06 12:27:00,
2015-05-06 07:32:00,68.2,65.2,29.89,SE,146,10.0,14.0,90,0.00,,,0.57,VWS V14.01,2015-05-06 12:32:00,
2015-05-06 07:37:00,68.2,65.2,29.89,SSE,150,13.0,15.0,90,0.00,,,0.57,VWS V14.01,2015-05-06 12:37:00,
2015-05-06 07:42:00,68.2,65.2,29.89,SSE,149,11.0,14.0,90,0.00,,,0.57,VWS V14.01,2015-05-06 12:42:00,
2015-05-06 07:47:00,68.3,65.3,29.89,SSE,167,11.0,13.0,90,0.00,,,0.57,VWS V14.01,2015-05-06 12:47:00,
2015-05-06 07:52:00,68.3,65.3,29.89,SSE,155,13.0,16.0,90,0.00,,,0.57,VWS V14.01,2015-05-06 12:52:00,
2015-05-06 07:57:00,68.3,65.3,29.89,SSE,150,11.0,12.0,90,0.00,,,0.57,VWS V14.01,2015-05-06 12:57:00,
2015-05-06 08:02:00,68.4,65.4,29.90,SSE,165,17.0,17.0,90,0.00,,,0.57,VWS V14.01,2015-05-06 13:02:00,
2015-05-06 08:07:00,68.4,65.4,29.90,SSE,161,12.0,16.0,90,0.00,,,0.57,VWS V14.01,2015-05-06 13:07:00,
2015-05-06 08:12:00,68.4,65.4,29.90,SSE,156,9.0,13.0,90,0.00,,,0.57,VWS V14.01,2015-05-06 13:12:00,
2015-05-06 08:17:00,68.5,65.5,29.90,SSE,152,16.0,17.0,90,0.00,,,0.57,VWS V14.01,2015-05-06 13:17:00,
2015-05-06 08:22:00,68.5,65.5,29.90,SSE,163,12.0,13.0,90,0.00,,,0.57,VWS V14.01,2015-05-06 13:22:00,
2015-05-06 08:27:00,68.5,65.1,29.90,SSE,155,10.0,14.0,89,0.00,,,0.57,VWS V14.01,2015-05-06 13:27:00,
2015-05-06 08:32:00,68.5,65.1,29.90,SSE,165,15.0,16.0,89,0.00,,,0.57,VWS V14.01,2015-05-06 13:32:00,
2015-05-06 08:37:00,68.6,65.2,29.90,South,169,13.0,15.0,89,0.00,,,0.57,VWS V14.01,2015-05-06 13:37:00,
2015-05-06 08:42:00,68.6,65.2,29.91,SSE,161,15.0,15.0,89,0.00,,,0.57,VWS V14.01,2015-05-06 13:42:00,
2015-05-06 08:47:00,68.7,65.3,29.90,SSE,165,11.0,14.0,89,0.00,,,0.57,VWS V14.01,2015-05-06 13:47:00,
2015-05-06 08:52:00,68.8,65.4,29.90,SSE,149,12.0,16.0,89,0.00,,,0.57,VWS V14.01,2015-05-06 13:52:00,
2015-05-06 08:57:00,68.8,65.4,29.90,SE,146,12.0,16.0,89,0.00,,,0.57,VWS V14.01,2015-05-06 13:57:00,
2015-05-06 09:02:00,68.8,65.4,29.90,SSE,153,10.0,17.0,89,0.00,,,0.57,VWS V14.01,2015-05-06 14:02:00,
2015-05-06 09:07:00,68.8,65.4,29.90,SSE,159,10.0,14.0,89,0.00,,,0.57,VWS V14.01,2015-05-06 14:07:00,
2015-05-06 09:12:00,68.8,65.4,29.91,SSE,159,14.0,15.0,89,0.00,,,0.57,VWS V14.01,2015-05-06 14:12:00,
2015-05-06 09:17:00,68.8,65.4,29.91,SSE,150,11.0,16.0,89,0.00,,,0.57,VWS V14.01,2015-05-06 14:17:00,
2015-05-06 09:22:00,68.9,65.5,29.90,SSE,165,12.0,14.0,89,0.00,,,0.57,VWS V14.01,2015-05-06 14:22:00,
2015-05-06 09:27:00,69.0,65.6,29.91,South,171,13.0,13.0,89,0.00,,,0.57,VWS V14.01,2015-05-06 14:27:00,
2015-05-06 09:32:00,69.1,65.7,29.91,SSE,167,16.0,16.0,89,0.00,,,0.57,VWS V14.01,2015-05-06 14:32:00,
2015-05-06 09:37:00,69.3,65.9,29.91,SSE,155,11.0,16.0,89,0.00,,,0.57,VWS V14.01,2015-05-06 14:37:00,
2015-05-06 09:42:00,69.4,66.0,29.91,SE,142,11.0,13.0,89,0.00,,,0.57,VWS V14.01,2015-05-06 14:42:00,
2015-05-06 09:47:00,69.5,66.1,29.91,SSE,161,15.0,17.0,89,0.00,,,0.57,VWS V14.01,2015-05-06 14:47:00,
2015-05-06 09:52:00,69.5,65.8,29.91,SSE,163,14.0,21.0,88,0.00,,,0.57,VWS V14.01,2015-05-06 14:52:00,
2015-05-06 09:57:00,69.6,65.9,29.91,SSE,160,10.0,16.0,88,0.00,,,0.57,VWS V14.01,2015-05-06 14:57:00,
2015-05-06 10:02:00,69.8,66.1,29.91,SSE,152,12.0,16.0,88,0.00,,,0.57,VWS V14.01,2015-05-06 15:02:00,
2015-05-06 10:07:00,70.0,66.3,29.91,SE,132,13.0,16.0,88,0.00,,,0.57,VWS V14.01,2015-05-06 15:07:00,
2015-05-06 10:12:00,70.1,66.4,29.91,SSE,151,11.0,14.0,88,0.00,,,0.57,VWS V14.01,2015-05-06 15:12:00,
2015-05-06 10:17:00,70.2,66.5,29.91,SSE,156,10.0,12.0,88,0.00,,,0.57,VWS V14.01,2015-05-06 15:17:00,
2015-05-06 10:22:00,70.2,66.5,29.91,SE,146,10.0,13.0,88,0.00,,,0.57,VWS V14.01,2015-05-06 15:22:00,
2015-05-06 10:27:00,70.3,66.6,29.91,SSE,158,8.0,12.0,88,0.00,,,0.57,VWS V14.01,2015-05-06 15:27:00,
2015-05-06 10:32:00,70.5,66.8,29.91,SSE,157,12.0,13.0,88,0.00,,,0.57,VWS V14.01,2015-05-06 15:32:00,
2015-05-06 10:37:00,70.7,67.0,29.91,SE,144,11.0,11.0,88,0.00,,,0.57,VWS V14.01,2015-05-06 15:37:00,
2015-05-06 10:42:00,70.8,66.7,29.90,South,171,13.0,15.0,87,0.00,,,0.57,VWS V14.01,2015-05-06 15:42:00,
2015-05-06 10:47:00,70.8,66.7,29.90,SSE,157,12.0,15.0,87,0.00,,,0.57,VWS V14.01,2015-05-06 15:47:00,
2015-05-06 10:52:00,70.8,66.7,29.91,SSE,161,15.0,15.0,87,0.00,,,0.57,VWS V14.01,2015-05-06 15:52:00,
2015-05-06 10:57:00,70.7,66.7,29.91,SSE,157,10.0,12.0,87,0.00,,,0.57,VWS V14.01,2015-05-06 15:57:00,
2015-05-06 11:02:00,70.8,66.7,29.91,SSE,167,9.0,12.0,87,0.00,,,0.57,VWS V14.01,2015-05-06 16:02:00,
2015-05-06 11:07:00,70.9,66.8,29.91,SSE,168,11.0,12.0,87,0.00,,,0.57,VWS V14.01,2015-05-06 16:07:00,
2015-05-06 11:12:00,71.0,66.9,29.91,SSE,160,12.0,14.0,87,0.00,,,0.57,VWS V14.01,2015-05-06 16:12:00,
2015-05-06 11:17:00,71.1,67.0,29.91,SSE,155,8.0,9.0,87,0.00,,,0.57,VWS V14.01,2015-05-06 16:17:00,
2015-05-06 11:22:00,71.3,67.2,29.91,SSE,161,11.0,12.0,87,0.00,,,0.57,VWS V14.01,2015-05-06 16:22:00,
2015-05-06 11:27:00,71.3,66.9,29.91,SSE,153,12.0,16.0,86,0.00,,,0.57,VWS V14.01,2015-05-06 16:27:00,
2015-05-06 11:32:00,71.7,67.3,29.90,SSE,163,11.0,15.0,86,0.00,,,0.57,VWS V14.01,2015-05-06 16:32:00,
2015-05-06 11:37:00,72.4,68.0,29.90,SSE,158,14.0,16.0,86,0.00,,,0.57,VWS V14.01,2015-05-06 16:37:00,
2015-05-06 11:42:00,72.8,67.7,29.90,SSE,158,11.0,15.0,84,0.00,,,0.57,VWS V14.01,2015-05-06 16:42:00,
2015-05-06 11:47:00,72.9,67.8,29.90,SSE,148,14.0,14.0,84,0.00,,,0.57,VWS V14.01,2015-05-06 16:47:00,
2015-05-06 11:52:00,72.8,67.7,29.90,SSE,156,16.0,17.0,84,0.00,,,0.57,VWS V14.01,2015-05-06 16:52:00,
2015-05-06 11:57:00,72.7,67.6,29.90,SSE,150,12.0,12.0,84,0.00,,,0.57,VWS V14.01,2015-05-06 16:57:00,
2015-05-06 12:02:00,72.7,67.6,29.90,SSE,148,12.0,13.0,84,0.00,,,0.57,VWS V14.01,2015-05-06 17:02:00,
2015-05-06 12:07:00,72.7,67.6,29.90,SSE,153,14.0,14.0,84,0.00,,,0.57,VWS V14.01,2015-05-06 17:07:00,
2015-05-06 12:12:00,72.8,67.7,29.90,SSE,147,16.0,19.0,84,0.00,,,0.57,VWS V14.01,2015-05-06 17:12:00,
2015-05-06 12:17:00,73.3,68.2,29.89,SSE,158,10.0,17.0,84,0.00,,,0.57,VWS V14.01,2015-05-06 17:17:00,
2015-05-06 12:22:00,73.6,68.1,29.89,SSE,151,12.0,14.0,83,0.00,,,0.57,VWS V14.01,2015-05-06 17:22:00,
2015-05-06 12:27:00,73.9,68.4,29.89,SE,144,13.0,13.0,83,0.00,,,0.57,VWS V14.01,2015-05-06 17:27:00,
2015-05-06 12:32:00,74.2,68.4,29.89,SSE,152,15.0,17.0,82,0.00,,,0.57,VWS V14.01,2015-05-06 17:32:00,
2015-05-06 12:37:00,75.0,68.8,29.89,SSE,155,18.0,21.0,81,0.00,,,0.57,VWS V14.01,2015-05-06 17:37:00,
2015-05-06 12:42:00,75.1,68.9,29.89,SSE,162,16.0,23.0,81,0.00,,,0.57,VWS V14.01,2015-05-06 17:42:00,
2015-05-06 12:47:00,74.9,68.3,29.88,SSE,159,13.0,18.0,80,0.00,,,0.57,VWS V14.01,2015-05-06 17:47:00,
2015-05-06 12:52:00,74.6,68.0,29.88,SSE,148,10.0,17.0,80,0.00,,,0.57,VWS V14.01,2015-05-06 17:52:00,
2015-05-06 12:57:00,74.5,68.3,29.88,South,173,16.0,17.0,81,0.00,,,0.57,VWS V14.01,2015-05-06 17:57:00,
2015-05-06 13:02:00,74.6,68.4,29.88,SSE,150,16.0,16.0,81,0.00,,,0.57,VWS V14.01,2015-05-06 18:02:00,
2015-05-06 13:07:00,74.8,68.6,29.88,SSE,154,11.0,11.0,81,0.00,,,0.57,VWS V14.01,2015-05-06 18:07:00,
2015-05-06 13:12:00,75.2,69.0,29.88,SSE,161,14.0,15.0,81,0.00,,,0.57,VWS V14.01,2015-05-06 18:12:00,
2015-05-06 13:17:00,76.0,69.0,29.88,SSE,159,20.0,20.0,79,0.00,,,0.57,VWS V14.01,2015-05-06 18:17:00,
2015-05-06 13:22:00,76.5,69.9,29.88,SSE,159,9.0,19.0,80,0.00,,,0.57,VWS V14.01,2015-05-06 18:22:00,
2015-05-06 13:27:00,76.7,69.3,29.87,South,176,13.0,18.0,78,0.00,,,0.57,VWS V14.01,2015-05-06 18:27:00,
2015-05-06 13:32:00,76.6,68.9,29.87,South,175,15.0,19.0,77,0.00,,,0.57,VWS V14.01,2015-05-06 18:32:00,
2015-05-06 13:37:00,76.7,69.3,29.87,SSE,159,9.0,14.0,78,0.00,,,0.57,VWS V14.01,2015-05-06 18:37:00,
2015-05-06 13:42:00,76.8,69.1,29.87,SE,146,11.0,15.0,77,0.00,,,0.57,VWS V14.01,2015-05-06 18:42:00,
2015-05-06 13:47:00,76.9,69.2,29.86,SSE,156,16.0,16.0,77,0.00,,,0.57,VWS V14.01,2015-05-06 18:47:00,
2015-05-06 13:52:00,76.3,68.6,29.87,SSE,151,11.0,14.0,77,0.00,,,0.57,VWS V14.01,2015-05-06 18:52:00,
2015-05-06 13:57:00,76.1,69.1,29.87,SSE,161,13.0,14.0,79,0.00,,,0.57,VWS V14.01,2015-05-06 18:57:00,
2015-05-06 14:02:00,75.9,68.9,29.87,SSE,153,11.0,12.0,79,0.00,,,0.57,VWS V14.01,2015-05-06 19:02:00,
2015-05-06 14:07:00,76.5,69.9,29.86,South,178,10.0,11.0,80,0.00,,,0.57,VWS V14.01,2015-05-06 19:07:00,
2015-05-06 14:12:00,77.4,70.0,29.86,SSE,155,14.0,21.0,78,0.00,,,0.57,VWS V14.01,2015-05-06 19:12:00,
2015-05-06 14:17:00,78.2,69.6,29.86,South,175,13.0,16.0,75,0.00,,,0.57,VWS V14.01,2015-05-06 19:17:00,
2015-05-06 14:22:00,78.7,70.5,29.85,SE,146,10.0,11.0,76,0.00,,,0.57,VWS V14.01,2015-05-06 19:22:00,
2015-05-06 14:27:00,78.7,70.1,29.85,SE,146,6.0,11.0,75,0.00,,,0.57,VWS V14.01,2015-05-06 19:27:00,
2015-05-06 14:32:00,78.3,70.1,29.85,SE,138,10.0,13.0,76,0.00,,,0.57,VWS V14.01,2015-05-06 19:32:00,
2015-05-06 14:37:00,78.0,69.8,29.85,SSE,151,11.0,14.0,76,0.00,,,0.57,VWS V14.01,2015-05-06 19:37:00,
2015-05-06 14:42:00,78.7,70.9,29.85,SE,142,12.0,15.0,77,0.00,,,0.57,VWS V14.01,2015-05-06 19:42:00,
2015-05-06 14:47:00,78.7,70.1,29.85,SSE,154,13.0,16.0,75,0.00,,,0.57,VWS V14.01,2015-05-06 19:47:00,
2015-05-06 14:52:00,79.1,70.1,29.85,SE,146,9.0,15.0,74,0.00,,,0.57,VWS V14.01,2015-05-06 19:52:00,